Wetterdaten: Woche 17.03.14 - 23.03.14 (KW12)
Datum Zeit Temp. Aussen +5cm Feuchte Auss Luftdruck Regen Sonnenschein Regendauer UV Solar Windben
17.03.2014 00:00 8,0 C 6,2 C 84 % 1019,2 hPa 0,0 l/m 0,00 h 0,00 h 0,0 UV-I 0 W/m 3,5 km/h (1 Bft)
17.03.2014 01:00 8,2 C 6,6 C 85 % 1019,2 hPa 0,0 l/m 0,00 h 0,00 h 0,0 UV-I 0 W/m 2,3 km/h (1 Bft)
17.03.2014 02:00 7,6 C 5,8 C 88 % 1019,3 hPa 0,0 l/m 0,00 h 0,00 h 0,0 UV-I 0 W/m 0,5 km/h (0 Bft)
17.03.2014 03:00 8,0 C 6,7 C 89 % 1018,9 hPa 0,0 l/m 0,00 h 0,00 h 0,0 UV-I 0 W/m 1,4 km/h (1 Bft)
17.03.2014 04:00 8,4 C 7,2 C 89 % 1018,8 hPa 0,0 l/m 0,00 h 0,00 h 0,0 UV-I 0 W/m 3,7 km/h (1 Bft)
17.03.2014 05:00 8,6 C 7,3 C 90 % 1018,9 hPa 0,0 l/m 0,00 h 0,00 h 0,0 UV-I 0 W/m 7,6 km/h (2 Bft)
17.03.2014 06:00 8,8 C 7,8 C 90 % 1019,1 hPa 0,0 l/m 0,00 h 0,00 h 0,0 UV-I 5 W/m 6,7 km/h (2 Bft)
17.03.2014 07:00 8,9 C 7,8 C 91 % 1019,4 hPa 0,0 l/m 0,00 h 0,00 h 0,0 UV-I 23 W/m 10,7 km/h (2 Bft)
17.03.2014 08:00 9,3 C 8,5 C 90 % 1019,9 hPa 0,0 l/m 0,00 h 0,00 h 0,0 UV-I 69 W/m 10,7 km/h (2 Bft)
17.03.2014 09:00 10,0 C 9,6 C 88 % 1020,1 hPa 0,0 l/m 0,00 h 0,00 h 0,0 UV-I 138 W/m 11,4 km/h (2 Bft)
17.03.2014 10:00 11,0 C 11,0 C 84 % 1020,2 hPa 0,0 l/m 0,00 h 0,00 h 0,6 UV-I 202 W/m 11,4 km/h (2 Bft)
17.03.2014 11:00 11,5 C 11,6 C 81 % 1020,0 hPa 0,0 l/m 0,00 h 0,00 h 0,8 UV-I 220 W/m 12,5 km/h (3 Bft)
17.03.2014 12:00 11,6 C 11,3 C 79 % 1019,9 hPa 0,0 l/m 0,00 h 0,00 h 0,8 UV-I 149 W/m 13,8 km/h (3 Bft)
17.03.2014 13:00 12,1 C 11,9 C 76 % 1019,7 hPa 0,0 l/m 0,00 h 0,00 h 0,7 UV-I 173 W/m 12,0 km/h (2 Bft)
17.03.2014 14:00 12,4 C 11,8 C 73 % 1019,6 hPa 0,0 l/m 0,00 h 0,00 h 0,6 UV-I 123 W/m 10,1 km/h (2 Bft)
17.03.2014 15:00 12,6 C 12,1 C 69 % 1019,5 hPa 0,0 l/m 0,00 h 0,00 h 0,0 UV-I 144 W/m 12,1 km/h (2 Bft)
17.03.2014 16:00 12,5 C 11,9 C 68 % 1019,3 hPa 0,0 l/m 0,00 h 0,00 h 0,0 UV-I 100 W/m 8,4 km/h (2 Bft)
17.03.2014 17:00 11,8 C 10,6 C 71 % 1019,3 hPa 0,0 l/m 0,00 h 0,00 h 0,0 UV-I 38 W/m 10,8 km/h (2 Bft)
17.03.2014 18:00 11,1 C 9,8 C 70 % 1019,7 hPa 0,0 l/m 0,00 h 0,00 h 0,0 UV-I 11 W/m 6,8 km/h (2 Bft)
17.03.2014 19:00 10,6 C 9,2 C 71 % 1019,9 hPa 0,0 l/m 0,00 h 0,00 h 0,0 UV-I 0 W/m 5,7 km/h (1 Bft)
17.03.2014 20:00 10,0 C 8,5 C 73 % 1019,8 hPa 0,0 l/m 0,00 h 0,00 h 0,0 UV-I 0 W/m 1,8 km/h (1 Bft)
17.03.2014 21:00 9,3 C 7,7 C 76 % 1019,6 hPa 0,0 l/m 0,00 h 0,00 h 0,0 UV-I 0 W/m 0,3 km/h (0 Bft)
17.03.2014 22:00 8,3 C 6,1 C 80 % 1019,4 hPa 0,0 l/m 0,00 h 0,00 h 0,0 UV-I 0 W/m 0,0 km/h (0 Bft)
17.03.2014 23:00 7,3 C 5,5 C 84 % 1019,2 hPa 0,0 l/m 0,00 h 0,00 h 0,0 UV-I 0 W/m 0,0 km/h (0 Bft)
18.03.2014 00:00 8,1 C 6,5 C 82 % 1018,8 hPa 0,0 l/m 0,00 h 0,00 h 0,0 UV-I 0 W/m 0,0 km/h (0 Bft)
18.03.2014 01:00 8,5 C 7,0 C 81 % 1018,6 hPa 0,0 l/m 0,00 h 0,00 h 0,0 UV-I 0 W/m 0,3 km/h (0 Bft)
18.03.2014 02:00 8,8 C 7,2 C 79 % 1018,0 hPa 0,0 l/m 0,00 h 0,00 h 0,0 UV-I 0 W/m 0,4 km/h (0 Bft)
18.03.2014 03:00 8,9 C 7,6 C 85 % 1017,2 hPa 0,0 l/m 0,00 h 0,00 h 0,0 UV-I 0 W/m 2,7 km/h (1 Bft)
18.03.2014 04:00 8,9 C 7,7 C 91 % 1016,4 hPa 0,0 l/m 0,00 h 0,00 h 0,0 UV-I 0 W/m 3,4 km/h (1 Bft)
18.03.2014 05:00 8,9 C 7,8 C 91 % 1015,9 hPa 0,0 l/m 0,00 h 0,00 h 0,0 UV-I 0 W/m 2,7 km/h (1 Bft)
18.03.2014 06:00 9,0 C 7,8 C 92 % 1015,6 hPa 0,0 l/m 0,00 h 0,00 h 0,0 UV-I 5 W/m 7,4 km/h (2 Bft)
18.03.2014 07:00 9,0 C 7,8 C 89 % 1015,6 hPa 0,0 l/m 0,00 h 0,00 h 0,0 UV-I 11 W/m 9,0 km/h (2 Bft)
18.03.2014 08:00 8,9 C 8,0 C 87 % 1015,8 hPa 0,0 l/m 0,00 h 0,00 h 0,0 UV-I 37 W/m 11,3 km/h (2 Bft)
18.03.2014 09:00 9,0 C 8,0 C 86 % 1015,9 hPa 0,0 l/m 0,00 h 0,00 h 0,0 UV-I 33 W/m 11,4 km/h (2 Bft)
18.03.2014 10:00 9,3 C 8,7 C 85 % 1015,6 hPa 0,0 l/m 0,00 h 0,00 h 0,0 UV-I 89 W/m 11,4 km/h (2 Bft)
18.03.2014 11:00 9,5 C 8,9 C 85 % 1015,3 hPa 0,0 l/m 0,00 h 0,00 h 0,0 UV-I 86 W/m 10,9 km/h (2 Bft)
18.03.2014 12:00 9,7 C 9,1 C 84 % 1014,9 hPa 0,0 l/m 0,00 h 0,00 h 0,0 UV-I 86 W/m 9,6 km/h (2 Bft)
18.03.2014 13:00 9,9 C 9,4 C 83 % 1014,3 hPa 0,0 l/m 0,00 h 0,00 h 0,0 UV-I 80 W/m 11,1 km/h (2 Bft)
18.03.2014 14:00 10,1 C 9,4 C 83 % 1013,6 hPa 0,0 l/m 0,00 h 0,00 h 0,0 UV-I 63 W/m 10,5 km/h (2 Bft)
18.03.2014 15:00 9,9 C 9,0 C 84 % 1013,1 hPa 0,0 l/m 0,00 h 0,00 h 0,0 UV-I 52 W/m 14,7 km/h (3 Bft)
18.03.2014 16:00 10,0 C 9,1 C 82 % 1012,9 hPa 0,0 l/m 0,00 h 0,00 h 0,0 UV-I 44 W/m 18,4 km/h (3 Bft)
18.03.2014 17:00 9,7 C 8,4 C 80 % 1013,1 hPa 0,0 l/m 0,00 h 0,00 h 0,0 UV-I 24 W/m 18,5 km/h (3 Bft)
18.03.2014 18:00 9,5 C 8,3 C 79 % 1013,1 hPa 0,0 l/m 0,00 h 0,00 h 0,0 UV-I 15 W/m 17,0 km/h (3 Bft)
18.03.2014 19:00 9,3 C 7,8 C 81 % 1013,3 hPa 0,0 l/m 0,00 h 0,07 h 0,0 UV-I 0 W/m 14,7 km/h (3 Bft)
18.03.2014 20:00 9,5 C 8,1 C 82 % 1013,3 hPa 0,0 l/m 0,00 h 0,20 h 0,0 UV-I 0 W/m 18,8 km/h (3 Bft)
18.03.2014 21:00 9,4 C 7,5 C 85 % 1013,5 hPa 0,8 l/m 0,00 h 0,63 h 0,0 UV-I 0 W/m 20,1 km/h (4 Bft)
18.03.2014 22:00 8,2 C 6,5 C 92 % 1014,2 hPa 0,8 l/m 0,00 h 0,67 h 0,0 UV-I 0 W/m 16,1 km/h (3 Bft)
18.03.2014 23:00 8,3 C 6,7 C 94 % 1014,7 hPa 2,6 l/m 0,00 h 0,70 h 0,0 UV-I 0 W/m 16,9 km/h (3 Bft)
19.03.2014 00:00 8,5 C 7,0 C 95 % 1015,3 hPa 0,0 l/m 0,00 h 0,63 h 0,0 UV-I 0 W/m 18,7 km/h (3 Bft)
19.03.2014 01:00 8,8 C 7,2 C 95 % 1016,1 hPa 0,0 l/m 0,00 h 0,43 h 0,0 UV-I 0 W/m 18,2 km/h (3 Bft)
19.03.2014 02:00 9,0 C 7,2 C 93 % 1017,2 hPa 0,0 l/m 0,00 h 0,07 h 0,0 UV-I 0 W/m 17,1 km/h (3 Bft)
19.03.2014 03:00 8,9 C 7,2 C 92 % 1017,8 hPa 0,2 l/m 0,00 h 0,53 h 0,0 UV-I 0 W/m 15,8 km/h (3 Bft)
19.03.2014 04:00 9,1 C 7,2 C 89 % 1018,7 hPa 0,0 l/m 0,00 h 0,03 h 0,0 UV-I 0 W/m 14,2 km/h (3 Bft)
19.03.2014 05:00 9,1 C 7,2 C 88 % 1019,7 hPa 0,0 l/m 0,00 h 0,00 h 0,0 UV-I 0 W/m 10,6 km/h (2 Bft)
19.03.2014 06:00 9,0 C 7,2 C 88 % 1020,4 hPa 0,0 l/m 0,00 h 0,00 h 0,0 UV-I 8 W/m 9,4 km/h (2 Bft)
19.03.2014 07:00 9,2 C 7,7 C 88 % 1021,1 hPa 0,0 l/m 0,00 h 0,00 h 0,0 UV-I 28 W/m 9,5 km/h (2 Bft)
19.03.2014 08:00 9,7 C 8,5 C 86 % 1021,8 hPa 0,0 l/m 0,00 h 0,00 h 0,0 UV-I 73 W/m 12,9 km/h (3 Bft)
19.03.2014 09:00 10,5 C 9,7 C 84 % 1022,3 hPa 0,0 l/m 0,30 h 0,00 h 0,0 UV-I 207 W/m 15,1 km/h (3 Bft)
19.03.2014 10:00 11,3 C 10,8 C 81 % 1022,0 hPa 0,0 l/m 0,40 h 0,00 h 0,7 UV-I 289 W/m 16,3 km/h (3 Bft)
19.03.2014 11:00 12,6 C 11,8 C 77 % 1022,1 hPa 0,0 l/m 0,80 h 0,00 h 1,3 UV-I 428 W/m 17,1 km/h (3 Bft)
19.03.2014 12:00 14,1 C 13,0 C 70 % 1022,2 hPa 0,0 l/m 0,83 h 0,00 h 1,2 UV-I 500 W/m 20,9 km/h (4 Bft)
19.03.2014 13:00 15,5 C 14,1 C 63 % 1021,8 hPa 0,0 l/m 0,97 h 0,00 h 1,7 UV-I 519 W/m 23,3 km/h (4 Bft)
19.03.2014 14:00 16,1 C 15,0 C 60 % 1021,6 hPa 0,0 l/m 0,93 h 0,00 h 1,0 UV-I 379 W/m 20,2 km/h (4 Bft)
19.03.2014 15:00 16,8 C 15,1 C 56 % 1021,3 hPa 0,0 l/m 0,93 h 0,00 h 0,6 UV-I 350 W/m 23,2 km/h (4 Bft)
19.03.2014 16:00 16,9 C 14,8 C 55 % 1021,0 hPa 0,0 l/m 0,87 h 0,00 h 0,0 UV-I 258 W/m 19,0 km/h (3 Bft)
19.03.2014 17:00 15,9 C 13,8 C 61 % 1021,1 hPa 0,0 l/m 0,47 h 0,00 h 0,0 UV-I 122 W/m 12,4 km/h (3 Bft)
19.03.2014 18:00 14,3 C 12,1 C 67 % 1021,6 hPa 0,0 l/m 0,00 h 0,00 h 0,0 UV-I 15 W/m 9,5 km/h (2 Bft)
19.03.2014 19:00 13,2 C 11,3 C 72 % 1021,8 hPa 0,0 l/m 0,00 h 0,00 h 0,0 UV-I 0 W/m 12,0 km/h (2 Bft)
19.03.2014 20:00 12,6 C 10,7 C 75 % 1021,8 hPa 0,0 l/m 0,00 h 0,00 h 0,0 UV-I 0 W/m 10,8 km/h (2 Bft)
19.03.2014 21:00 12,1 C 10,1 C 76 % 1022,0 hPa 0,0 l/m 0,00 h 0,00 h 0,0 UV-I 0 W/m 11,3 km/h (2 Bft)
19.03.2014 22:00 11,5 C 9,5 C 78 % 1021,9 hPa 0,0 l/m 0,00 h 0,00 h 0,0 UV-I 0 W/m 12,8 km/h (3 Bft)
19.03.2014 23:00 11,2 C 9,4 C 78 % 1021,8 hPa 0,0 l/m 0,00 h 0,00 h 0,0 UV-I 0 W/m 12,2 km/h (2 Bft)
20.03.2014 00:00 10,8 C 9,0 C 79 % 1021,4 hPa 0,0 l/m 0,00 h 0,00 h 0,0 UV-I 0 W/m 11,3 km/h (2 Bft)
20.03.2014 01:00 10,5 C 8,9 C 79 % 1021,2 hPa 0,0 l/m 0,00 h 0,00 h 0,0 UV-I 0 W/m 10,2 km/h (2 Bft)
20.03.2014 02:00 10,0 C 8,1 C 79 % 1020,7 hPa 0,0 l/m 0,00 h 0,00 h 0,0 UV-I 0 W/m 5,9 km/h (2 Bft)
20.03.2014 03:00 9,1 C 7,0 C 81 % 1019,9 hPa 0,0 l/m 0,00 h 0,00 h 0,0 UV-I 0 W/m 2,3 km/h (1 Bft)
20.03.2014 04:00 7,3 C 5,3 C 85 % 1019,5 hPa 0,0 l/m 0,00 h 0,00 h 0,0 UV-I 0 W/m 2,2 km/h (1 Bft)
20.03.2014 05:00 5,9 C 4,3 C 87 % 1019,2 hPa 0,0 l/m 0,00 h 0,00 h 0,0 UV-I 0 W/m 7,1 km/h (2 Bft)
20.03.2014 06:00 5,2 C 3,9 C 90 % 1018,8 hPa 0,0 l/m 0,00 h 0,00 h 0,0 UV-I 9 W/m 7,2 km/h (2 Bft)
20.03.2014 07:00 5,7 C 4,4 C 91 % 1018,6 hPa 0,0 l/m 0,23 h 0,00 h 0,0 UV-I 57 W/m 8,5 km/h (2 Bft)
20.03.2014 08:00 7,9 C 6,4 C 87 % 1018,3 hPa 0,0 l/m 0,97 h 0,00 h 0,0 UV-I 233 W/m 13,2 km/h (3 Bft)
20.03.2014 09:00 11,1 C 9,1 C 77 % 1017,9 hPa 0,0 l/m 0,97 h 0,00 h 0,6 UV-I 374 W/m 15,5 km/h (3 Bft)
20.03.2014 10:00 14,4 C 12,5 C 68 % 1017,1 hPa 0,0 l/m 0,92 h 0,00 h 1,0 UV-I 474 W/m 13,1 km/h (3 Bft)
20.03.2014 11:00 16,5 C 14,6 C 63 % 1016,0 hPa 0,0 l/m 0,90 h 0,00 h 1,4 UV-I 512 W/m 13,6 km/h (3 Bft)
20.03.2014 12:00 18,3 C 16,2 C 57 % 1014,7 hPa 0,0 l/m 0,87 h 0,00 h 1,1 UV-I 565 W/m 19,6 km/h (3 Bft)
20.03.2014 13:00 20,7 C 18,2 C 49 % 1013,0 hPa 0,0 l/m 0,97 h 0,00 h 1,9 UV-I 603 W/m 20,8 km/h (4 Bft)
20.03.2014 14:00 22,3 C 19,7 C 37 % 1011,3 hPa 0,0 l/m 0,97 h 0,00 h 1,5 UV-I 548 W/m 31,4 km/h (5 Bft)
20.03.2014 15:00 22,4 C 20,1 C 37 % 1009,2 hPa 0,0 l/m 0,97 h 0,00 h 0,9 UV-I 447 W/m 35,0 km/h (5 Bft)
20.03.2014 16:00 22,6 C 19,8 C 37 % 1008,5 hPa 0,0 l/m 0,97 h 0,00 h 0,5 UV-I 304 W/m 26,8 km/h (4 Bft)
20.03.2014 17:00 21,3 C 18,4 C 39 % 1008,1 hPa 0,0 l/m 0,57 h 0,00 h 0,0 UV-I 121 W/m 21,0 km/h (4 Bft)
20.03.2014 18:00 19,4 C 16,3 C 45 % 1008,1 hPa 0,0 l/m 0,00 h 0,00 h 0,0 UV-I 23 W/m 13,4 km/h (3 Bft)
20.03.2014 19:00 17,9 C 14,8 C 47 % 1008,0 hPa 0,0 l/m 0,00 h 0,00 h 0,0 UV-I 0 W/m 9,7 km/h (2 Bft)
20.03.2014 20:00 16,4 C 13,2 C 51 % 1008,1 hPa 0,0 l/m 0,00 h 0,00 h 0,0 UV-I 0 W/m 3,9 km/h (1 Bft)
20.03.2014 21:00 15,1 C 12,1 C 55 % 1008,1 hPa 0,0 l/m 0,00 h 0,00 h 0,0 UV-I 0 W/m 4,9 km/h (1 Bft)
20.03.2014 22:00 14,4 C 11,2 C 58 % 1007,7 hPa 0,0 l/m 0,00 h 0,00 h 0,0 UV-I 0 W/m 2,4 km/h (1 Bft)
20.03.2014 23:00 14,4 C 11,6 C 60 % 1007,2 hPa 0,0 l/m 0,00 h 0,00 h 0,0 UV-I 0 W/m 7,1 km/h (2 Bft)
21.03.2014 00:00 15,2 C 12,8 C 60 % 1006,6 hPa 0,0 l/m 0,00 h 0,00 h 0,0 UV-I 0 W/m 13,8 km/h (3 Bft)
21.03.2014 01:00 15,1 C 12,8 C 61 % 1006,4 hPa 0,0 l/m 0,00 h 0,00 h 0,0 UV-I 0 W/m 13,1 km/h (3 Bft)
21.03.2014 02:00 14,9 C 12,7 C 63 % 1006,2 hPa 0,0 l/m 0,00 h 0,00 h 0,0 UV-I 0 W/m 11,4 km/h (2 Bft)
21.03.2014 03:00 14,3 C 12,2 C 66 % 1006,2 hPa 0,0 l/m 0,00 h 0,00 h 0,0 UV-I 0 W/m 12,1 km/h (2 Bft)
21.03.2014 04:00 13,7 C 11,8 C 69 % 1006,2 hPa 0,0 l/m 0,00 h 0,00 h 0,0 UV-I 0 W/m 13,5 km/h (3 Bft)
21.03.2014 05:00 13,0 C 11,3 C 72 % 1005,9 hPa 0,0 l/m 0,00 h 0,00 h 0,0 UV-I 0 W/m 11,8 km/h (2 Bft)
21.03.2014 06:00 12,5 C 10,8 C 73 % 1005,6 hPa 0,0 l/m 0,00 h 0,00 h 0,0 UV-I 7 W/m 9,1 km/h (2 Bft)
21.03.2014 07:00 12,3 C 10,8 C 75 % 1005,4 hPa 0,0 l/m 0,00 h 0,00 h 0,0 UV-I 34 W/m 11,8 km/h (2 Bft)
21.03.2014 08:00 12,7 C 11,4 C 73 % 1004,9 hPa 0,0 l/m 0,00 h 0,00 h 0,0 UV-I 82 W/m 13,2 km/h (3 Bft)
21.03.2014 09:00 13,5 C 12,7 C 70 % 1004,5 hPa 0,0 l/m 0,00 h 0,00 h 0,0 UV-I 181 W/m 13,3 km/h (3 Bft)
21.03.2014 10:00 12,9 C 10,5 C 75 % 1004,5 hPa 0,2 l/m 0,00 h 0,90 h 0,0 UV-I 97 W/m 17,3 km/h (3 Bft)
21.03.2014 11:00 11,7 C 9,7 C 84 % 1004,7 hPa 0,2 l/m 0,00 h 0,90 h 0,5 UV-I 100 W/m 19,3 km/h (3 Bft)
21.03.2014 12:00 10,9 C 9,0 C 91 % 1005,4 hPa 0,4 l/m 0,00 h 0,83 h 0,9 UV-I 80 W/m 24,8 km/h (4 Bft)
21.03.2014 13:00 10,6 C 8,8 C 87 % 1006,5 hPa 0,2 l/m 0,17 h 0,43 h 1,2 UV-I 254 W/m 24,3 km/h (4 Bft)
21.03.2014 14:00 8,7 C 7,4 C 84 % 1009,0 hPa 0,0 l/m 0,10 h 0,00 h 0,8 UV-I 123 W/m 22,1 km/h (4 Bft)
21.03.2014 15:00 8,3 C 7,3 C 83 % 1010,1 hPa 0,0 l/m 0,00 h 0,00 h 0,0 UV-I 76 W/m 11,3 km/h (2 Bft)
21.03.2014 16:00 8,3 C 7,8 C 82 % 1010,3 hPa 0,0 l/m 0,03 h 0,00 h 0,0 UV-I 107 W/m 6,5 km/h (2 Bft)
21.03.2014 17:00 8,8 C 7,8 C 79 % 1010,3 hPa 0,0 l/m 0,07 h 0,00 h 0,0 UV-I 68 W/m 7,2 km/h (2 Bft)
21.03.2014 18:00 8,6 C 7,2 C 78 % 1010,4 hPa 0,0 l/m 0,00 h 0,00 h 0,0 UV-I 16 W/m 5,1 km/h (1 Bft)
21.03.2014 19:00 7,3 C 5,2 C 81 % 1010,3 hPa 0,0 l/m 0,00 h 0,00 h 0,0 UV-I 0 W/m 0,0 km/h (0 Bft)
21.03.2014 20:00 5,7 C 3,7 C 88 % 1010,1 hPa 0,0 l/m 0,00 h 0,00 h 0,0 UV-I 0 W/m 0,0 km/h (0 Bft)
21.03.2014 21:00 5,3 C 3,3 C 88 % 1009,3 hPa 0,0 l/m 0,00 h 0,00 h 0,0 UV-I 0 W/m 0,4 km/h (0 Bft)
21.03.2014 22:00 5,2 C 3,9 C 88 % 1008,9 hPa 0,0 l/m 0,00 h 0,00 h 0,0 UV-I 0 W/m 1,0 km/h (0 Bft)
21.03.2014 23:00 5,6 C 4,4 C 88 % 1008,3 hPa 0,0 l/m 0,00 h 0,00 h 0,0 UV-I 0 W/m 2,0 km/h (1 Bft)
22.03.2014 00:00 5,9 C 4,5 C 86 % 1007,4 hPa 0,0 l/m 0,00 h 0,00 h 0,0 UV-I 0 W/m 0,8 km/h (0 Bft)
22.03.2014 01:00 5,9 C 5,0 C 87 % 1006,6 hPa 0,0 l/m 0,00 h 0,00 h 0,0 UV-I 0 W/m 2,4 km/h (1 Bft)
22.03.2014 02:00 5,7 C 4,3 C 90 % 1005,6 hPa 0,2 l/m 0,00 h 0,40 h 0,0 UV-I 0 W/m 4,0 km/h (1 Bft)
22.03.2014 03:00 5,4 C 4,1 C 94 % 1004,5 hPa 0,0 l/m 0,00 h 0,07 h 0,0 UV-I 0 W/m 0,0 km/h (0 Bft)
22.03.2014 04:00 5,0 C 3,5 C 95 % 1003,6 hPa 0,0 l/m 0,00 h 0,00 h 0,0 UV-I 0 W/m 2,7 km/h (1 Bft)
22.03.2014 05:00 5,1 C 3,8 C 95 % 1003,0 hPa 0,0 l/m 0,00 h 0,00 h 0,0 UV-I 0 W/m 9,5 km/h (2 Bft)
22.03.2014 06:00 5,8 C 4,3 C 95 % 1002,9 hPa 0,0 l/m 0,00 h 0,00 h 0,0 UV-I 9 W/m 6,8 km/h (2 Bft)
22.03.2014 07:00 6,5 C 4,9 C 93 % 1002,6 hPa 0,0 l/m 0,00 h 0,00 h 0,0 UV-I 46 W/m 2,9 km/h (1 Bft)
22.03.2014 08:00 8,2 C 6,5 C 87 % 1002,6 hPa 0,0 l/m 0,03 h 0,00 h 0,0 UV-I 117 W/m 6,8 km/h (2 Bft)
22.03.2014 09:00 9,9 C 8,3 C 78 % 1002,5 hPa 0,0 l/m 0,87 h 0,00 h 0,5 UV-I 325 W/m 18,8 km/h (3 Bft)
22.03.2014 10:00 10,5 C 9,7 C 73 % 1002,5 hPa 0,2 l/m 0,10 h 0,00 h 0,8 UV-I 230 W/m 19,6 km/h (3 Bft)
22.03.2014 11:00 11,4 C 10,9 C 69 % 1002,0 hPa 0,0 l/m 0,27 h 0,00 h 0,9 UV-I 322 W/m 21,6 km/h (4 Bft)
22.03.2014 12:00 9,8 C 8,1 C 78 % 1001,8 hPa 0,6 l/m 0,00 h 0,60 h 0,0 UV-I 75 W/m 16,7 km/h (3 Bft)
22.03.2014 13:00 7,6 C 7,0 C 94 % 1002,0 hPa 0,8 l/m 0,07 h 0,73 h 0,7 UV-I 185 W/m 10,1 km/h (2 Bft)
22.03.2014 14:00 8,8 C 8,3 C 89 % 1001,3 hPa 0,0 l/m 0,47 h 0,00 h 0,7 UV-I 312 W/m 10,7 km/h (2 Bft)
22.03.2014 15:00 9,0 C 8,1 C 86 % 1001,4 hPa 0,0 l/m 0,07 h 0,00 h 0,0 UV-I 160 W/m 9,3 km/h (2 Bft)
22.03.2014 16:00 7,4 C 5,7 C 85 % 1001,8 hPa 0,8 l/m 0,00 h 0,57 h 0,0 UV-I 41 W/m 8,8 km/h (2 Bft)
22.03.2014 17:00 6,2 C 5,2 C 94 % 1001,9 hPa 0,2 l/m 0,60 h 0,07 h 0,0 UV-I 133 W/m 2,4 km/h (1 Bft)
22.03.2014 18:00 6,3 C 4,4 C 91 % 1002,2 hPa 0,0 l/m 0,07 h 0,00 h 0,0 UV-I 22 W/m 5,6 km/h (1 Bft)
22.03.2014 19:00 5,4 C 3,7 C 93 % 1002,6 hPa 0,0 l/m 0,00 h 0,00 h 0,0 UV-I 0 W/m 2,4 km/h (1 Bft)
22.03.2014 20:00 4,4 C 2,9 C 94 % 1003,1 hPa 0,0 l/m 0,00 h 0,00 h 0,0 UV-I 0 W/m 2,5 km/h (1 Bft)
22.03.2014 21:00 4,0 C 2,4 C 96 % 1003,2 hPa 0,0 l/m 0,00 h 0,00 h 0,0 UV-I 0 W/m 1,3 km/h (1 Bft)
22.03.2014 22:00 3,7 C 2,5 C 96 % 1003,3 hPa 0,0 l/m 0,00 h 0,00 h 0,0 UV-I 0 W/m 3,4 km/h (1 Bft)
22.03.2014 23:00 4,3 C 3,2 C 96 % 1003,7 hPa 0,0 l/m 0,00 h 0,00 h 0,0 UV-I 0 W/m 2,8 km/h (1 Bft)
23.03.2014 00:00 4,3 C 2,5 C 93 % 1003,7 hPa 0,0 l/m 0,00 h 0,00 h 0,0 UV-I 0 W/m 1,9 km/h (1 Bft)
23.03.2014 01:00 4,1 C 2,2 C 92 % 1003,6 hPa 0,0 l/m 0,00 h 0,00 h 0,0 UV-I 0 W/m 4,6 km/h (1 Bft)
23.03.2014 02:00 4,1 C 2,7 C 91 % 1003,5 hPa 0,0 l/m 0,00 h 0,00 h 0,0 UV-I 0 W/m 7,6 km/h (2 Bft)
23.03.2014 03:00 4,2 C 2,6 C 91 % 1003,0 hPa 0,0 l/m 0,00 h 0,00 h 0,0 UV-I 0 W/m 5,0 km/h (1 Bft)
23.03.2014 04:00 3,8 C 2,5 C 91 % 1003,3 hPa 0,0 l/m 0,00 h 0,00 h 0,0 UV-I 0 W/m 6,1 km/h (2 Bft)
23.03.2014 05:00 3,6 C 2,2 C 91 % 1003,4 hPa 0,0 l/m 0,00 h 0,00 h 0,0 UV-I 0 W/m 4,3 km/h (1 Bft)
23.03.2014 06:00 3,4 C 2,2 C 92 % 1003,9 hPa 0,0 l/m 0,00 h 0,00 h 0,0 UV-I 12 W/m 5,9 km/h (2 Bft)
23.03.2014 07:00 3,9 C 2,7 C 92 % 1004,6 hPa 0,0 l/m 0,37 h 0,00 h 0,0 UV-I 72 W/m 9,1 km/h (2 Bft)
23.03.2014 08:00 5,1 C 4,2 C 88 % 1005,1 hPa 0,0 l/m 0,50 h 0,00 h 0,0 UV-I 218 W/m 12,8 km/h (3 Bft)
23.03.2014 09:00 5,7 C 5,1 C 86 % 1005,5 hPa 0,0 l/m 0,03 h 0,00 h 0,0 UV-I 173 W/m 15,9 km/h (3 Bft)
23.03.2014 10:00 6,8 C 6,7 C 82 % 1005,8 hPa 0,0 l/m 0,43 h 0,00 h 0,9 UV-I 353 W/m 14,5 km/h (3 Bft)
23.03.2014 11:00 7,1 C 6,6 C 81 % 1005,8 hPa 0,0 l/m 0,27 h 0,17 h 0,8 UV-I 312 W/m 14,3 km/h (3 Bft)
23.03.2014 12:00 7,5 C 6,8 C 82 % 1005,9 hPa 0,0 l/m 0,53 h 0,00 h 0,7 UV-I 423 W/m 16,4 km/h (3 Bft)
23.03.2014 13:00 7,6 C 7,5 C 79 % 1006,2 hPa 0,0 l/m 0,00 h 0,00 h 0,6 UV-I 250 W/m 12,1 km/h (2 Bft)
23.03.2014 14:00 8,8 C 8,6 C 74 % 1006,1 hPa 0,0 l/m 0,40 h 0,03 h 0,7 UV-I 310 W/m 11,7 km/h (2 Bft)
23.03.2014 15:00 9,2 C 8,8 C 71 % 1006,2 hPa 0,0 l/m 0,40 h 0,03 h 0,8 UV-I 306 W/m 14,4 km/h (3 Bft)
23.03.2014 16:00 6,1 C 4,9 C 83 % 1006,9 hPa 0,2 l/m 0,00 h 0,23 h 0,0 UV-I 54 W/m 10,0 km/h (2 Bft)
23.03.2014 17:00 6,7 C 5,7 C 80 % 1007,0 hPa 0,0 l/m 0,57 h 0,00 h 0,0 UV-I 150 W/m 1,6 km/h (1 Bft)
23.03.2014 18:00 6,6 C 4,8 C 79 % 1007,3 hPa 0,0 l/m 0,27 h 0,00 h 0,0 UV-I 33 W/m 1,2 km/h (1 Bft)
23.03.2014 19:00 4,9 C 2,5 C 85 % 1008,0 hPa 0,0 l/m 0,00 h 0,00 h 0,0 UV-I 0 W/m 0,0 km/h (0 Bft)
23.03.2014 20:00 4,2 C 2,2 C 89 % 1008,5 hPa 0,0 l/m 0,00 h 0,00 h 0,0 UV-I 0 W/m 0,0 km/h (0 Bft)
23.03.2014 21:00 4,2 C 3,0 C 90 % 1008,8 hPa 0,0 l/m 0,00 h 0,00 h 0,0 UV-I 0 W/m 0,3 km/h (0 Bft)
23.03.2014 22:00 3,8 C 2,5 C 90 % 1009,1 hPa 0,0 l/m 0,00 h 0,00 h 0,0 UV-I 0 W/m 0,3 km/h (0 Bft)
23.03.2014 23:00 3,3 C 2,1 C 92 % 1009,4 hPa 0,0 l/m 0,00 h 0,00 h 0,0 UV-I 0 W/m 0,0 km/h (0 Bft)
Min-Datum _ 23.03.14 23.03.14 20.03.14 22.03.14 - - - - - 17.03.14
_ Min-Zeit 23:16 20:44 15:02 14:52 - - - - - 00:00
Minimum _ 3,2 C 1,7 C 35 % 1001,0 hPa - - - - - 0,0 km/h (0 Bft)
Max-Datum _ 20.03.14 20.03.14 19.03.14 19.03.14 18.03.14 19.03.14 18.03.14 19.03.14 23.03.14 20.03.14
_ Max-Zeit 16:42 14:54 00:12 10:02 23:46 09:18 19:16 13:00 12:24 14:38
Maximum _ 22,9 C 20,6 C 96 % 1022,4 hPa 2,6 l/m 0,03 h 0,03 h 2,0 UV-I 786 W/m 51,5 km/h
S-SO (7 Bft)
Durchschnitt _ 9,7 C 8,3 C 80 % 1012,2 hPa #8,4 l/m #22:27 h #10:00 h 0,9 UV-I 169 W/m 10,1 km/h (2 Bft)
© 2014 W. Hausmann